createdAt,value
2017-08-27T10:44:09.585Z,21.40
2017-08-27T10:46:37.050Z,21.50
2017-08-27T10:49:04.634Z,21.70
2017-08-27T10:51:32.100Z,22.10
2017-08-27T10:53:59.623Z,22.40
2017-08-27T10:56:28.065Z,22.80
2017-08-27T10:58:55.636Z,23.10
2017-08-27T11:01:23.260Z,23.40
2017-08-27T11:03:50.799Z,23.60
2017-08-27T11:06:18.332Z,23.80
2017-08-27T11:08:45.907Z,24.00
2017-08-27T11:11:13.417Z,24.10
2017-08-27T11:13:41.050Z,24.10
2017-08-27T11:16:08.673Z,24.20
2017-08-27T11:18:37.279Z,24.30
2017-08-27T11:21:05.101Z,24.30
2017-08-27T11:23:32.625Z,24.30
2017-08-27T11:26:00.188Z,24.40
2017-08-27T11:28:27.886Z,24.50
2017-08-27T11:30:55.472Z,24.50
2017-08-27T11:33:23.166Z,24.50
2017-08-27T11:35:50.711Z,24.50
2017-08-27T11:38:18.314Z,24.40
2017-08-27T11:40:45.825Z,24.50
2017-08-27T11:43:13.431Z,24.50
2017-08-27T11:45:40.900Z,24.60
2017-08-27T11:48:08.358Z,24.70
2017-08-27T11:50:35.860Z,24.80
2017-08-27T11:53:03.350Z,24.90
2017-08-27T11:55:30.834Z,25.00
2017-08-27T11:57:58.357Z,25.10
2017-08-27T12:00:26.654Z,25.10
2017-08-27T12:02:54.097Z,25.10
2017-08-27T12:05:21.610Z,25.20
2017-08-27T12:07:49.078Z,25.30
2017-08-27T12:10:16.542Z,25.50
2017-08-27T12:12:44.036Z,25.70
2017-08-27T12:15:11.577Z,25.80
2017-08-27T12:17:39.036Z,25.90
2017-08-27T12:20:07.284Z,25.90
2017-08-27T12:22:34.833Z,25.90
2017-08-27T12:25:02.344Z,26.00
2017-08-27T12:27:29.918Z,26.20
2017-08-27T12:29:57.404Z,26.40
2017-08-27T12:32:24.849Z,26.50
2017-08-27T12:34:52.338Z,26.60
2017-08-27T12:37:19.838Z,26.80
2017-08-27T12:39:47.390Z,26.90
2017-08-27T12:42:14.864Z,26.90
2017-08-27T12:44:43.109Z,27.10
2017-08-27T12:47:10.594Z,27.00
2017-08-27T12:49:38.106Z,27.20
2017-08-27T12:52:05.566Z,27.30
2017-08-27T12:54:33.027Z,27.50
2017-08-27T12:57:00.518Z,27.70
2017-08-27T12:59:27.964Z,27.80
2017-08-27T13:01:55.419Z,28.00
2017-08-27T13:04:22.885Z,28.10
2017-08-27T13:06:50.339Z,28.30
2017-08-27T13:09:17.838Z,28.50
2017-08-27T13:11:45.301Z,28.80
2017-08-27T13:14:12.787Z,28.80
2017-08-27T13:16:40.261Z,28.80
2017-08-27T13:19:07.710Z,28.80
2017-08-27T13:21:35.206Z,28.80
2017-08-27T13:24:02.661Z,28.80
2017-08-27T13:26:30.877Z,29.00
2017-08-27T13:28:58.355Z,29.00
2017-08-27T13:31:25.802Z,29.20
2017-08-27T13:33:53.284Z,29.40
2017-08-27T13:36:20.769Z,29.60
2017-08-27T13:38:48.230Z,29.80
2017-08-27T13:41:15.709Z,30.60
2017-08-27T13:43:43.189Z,32.40
2017-08-27T13:46:10.641Z,34.40
2017-08-27T13:48:38.103Z,36.40
2017-08-27T13:51:05.589Z,38.30
2017-08-27T13:53:33.069Z,40.00
2017-08-27T13:56:00.570Z,39.30
2017-08-27T13:58:28.037Z,38.00
2017-08-27T14:00:55.490Z,36.50
2017-08-27T14:03:22.981Z,36.90
2017-08-27T14:05:50.442Z,39.10
2017-08-27T14:08:17.892Z,41.70
2017-08-27T14:10:45.373Z,44.40
2017-08-27T14:13:12.834Z,46.60
2017-08-27T14:15:40.297Z,48.40
2017-08-27T14:18:07.786Z,49.80
2017-08-27T14:20:35.243Z,51.00
2017-08-27T14:23:02.693Z,49.90
2017-08-27T14:25:30.183Z,48.00
2017-08-27T14:27:57.661Z,46.20
2017-08-27T14:30:25.134Z,44.50
2017-08-27T14:32:52.625Z,43.00
2017-08-27T14:35:20.102Z,43.80
2017-08-27T14:37:47.593Z,44.20
2017-08-27T14:40:15.050Z,43.60
2017-08-27T14:42:42.514Z,43.40
2017-08-27T14:45:10.015Z,44.20
2017-08-27T14:47:37.474Z,44.90
2017-08-27T14:50:04.934Z,45.60
2017-08-27T14:52:32.414Z,46.10
2017-08-27T14:54:59.874Z,46.20
2017-08-27T14:57:27.810Z,44.60
2017-08-27T14:59:55.353Z,42.30
2017-08-27T15:02:22.802Z,40.30
2017-08-27T15:04:50.285Z,38.70
2017-08-27T15:07:17.737Z,39.30
2017-08-27T15:09:45.238Z,41.10
2017-08-27T15:12:12.689Z,43.20
2017-08-27T15:14:40.147Z,45.40
2017-08-27T15:17:07.640Z,47.00
2017-08-27T15:19:35.086Z,47.90
2017-08-27T15:22:02.572Z,48.80
2017-08-27T15:24:30.026Z,49.70
2017-08-27T15:26:57.485Z,50.30
2017-08-27T15:29:24.978Z,50.80
2017-08-27T15:31:52.473Z,51.50
2017-08-27T15:34:19.931Z,51.90
2017-08-27T15:36:47.409Z,51.50
2017-08-27T15:39:14.866Z,50.80
2017-08-27T15:41:42.342Z,51.20
2017-08-27T15:44:10.615Z,51.50
2017-08-27T15:46:38.074Z,51.60
2017-08-27T15:49:05.679Z,51.10
2017-08-27T15:51:33.163Z,50.60
2017-08-27T15:54:00.621Z,49.30
2017-08-27T15:56:28.102Z,47.60
2017-08-27T15:58:55.567Z,46.20
2017-08-27T16:01:23.037Z,44.70
2017-08-27T16:03:50.519Z,44.00
2017-08-27T16:06:17.969Z,43.40
2017-08-27T16:08:45.458Z,42.40
2017-08-27T16:11:12.933Z,41.20
2017-08-27T16:13:40.417Z,40.00
2017-08-27T16:16:07.867Z,39.10
2017-08-27T16:18:35.325Z,38.30
2017-08-27T16:21:02.809Z,37.50
2017-08-27T16:23:30.261Z,36.80
2017-08-27T16:25:57.706Z,36.10
2017-08-27T16:28:25.193Z,35.50
2017-08-27T16:30:52.647Z,35.00
2017-08-27T16:33:20.134Z,34.50
2017-08-27T16:35:47.591Z,34.20
2017-08-27T16:38:15.040Z,34.00
2017-08-27T16:40:42.514Z,33.80
2017-08-27T16:43:09.969Z,33.60
2017-08-27T16:45:37.417Z,33.40
2017-08-27T16:48:04.889Z,33.40
2017-08-27T16:50:32.366Z,33.20
2017-08-27T16:52:59.846Z,32.90
2017-08-27T16:55:27.341Z,32.60
2017-08-27T16:57:54.785Z,32.30
2017-08-27T17:00:22.235Z,32.00
2017-08-27T17:02:49.729Z,31.80
2017-08-27T17:05:17.182Z,31.50
2017-08-27T17:07:44.646Z,31.30
2017-08-27T17:10:12.137Z,31.10
2017-08-27T17:12:39.589Z,30.90
2017-08-27T17:15:07.041Z,30.80
2017-08-27T17:17:34.518Z,30.60
2017-08-27T17:20:01.998Z,30.40
2017-08-27T17:22:29.472Z,30.60
2017-08-27T17:24:56.942Z,31.80
2017-08-27T17:27:24.419Z,32.90
2017-08-27T17:29:51.875Z,33.10
2017-08-27T17:32:19.386Z,32.80
2017-08-27T17:34:47.021Z,32.40
2017-08-27T17:37:14.829Z,31.90
2017-08-27T17:39:42.318Z,31.90
2017-08-27T17:42:09.971Z,32.50
2017-08-27T17:44:37.719Z,33.10
2017-08-27T17:47:05.310Z,33.40
2017-08-27T17:49:32.818Z,32.80
2017-08-27T17:52:00.297Z,32.10
2017-08-27T17:54:27.773Z,31.30
2017-08-27T17:56:55.233Z,30.70
2017-08-27T17:59:22.759Z,30.20
2017-08-27T18:01:50.983Z,29.60
2017-08-27T18:04:18.425Z,29.60
2017-08-27T18:06:45.918Z,29.30
2017-08-27T18:09:13.371Z,29.10
2017-08-27T18:11:40.866Z,28.80
2017-08-27T18:14:08.562Z,28.50
2017-08-27T18:16:36.020Z,28.20
2017-08-27T18:19:03.562Z,28.00
2017-08-27T18:21:31.784Z,27.70
2017-08-27T18:23:59.276Z,27.60
2017-08-27T18:26:26.748Z,27.50
2017-08-27T18:28:54.964Z,27.20
2017-08-27T18:31:22.425Z,27.20
2017-08-27T18:33:49.906Z,27.00
2017-08-27T18:36:17.387Z,26.90
2017-08-27T18:38:44.850Z,26.80
2017-08-27T18:41:12.351Z,26.60
2017-08-27T18:43:39.824Z,26.50
2017-08-27T18:46:07.286Z,26.30
2017-08-27T18:48:35.253Z,26.20
2017-08-27T18:51:02.848Z,26.10
2017-08-27T18:53:36.782Z,26.00
2017-08-27T18:56:04.508Z,26.00
2017-08-27T18:58:32.029Z,25.90
2017-08-27T19:00:59.526Z,25.90
2017-08-27T19:03:27.022Z,25.90
2017-08-27T19:05:54.491Z,25.80
2017-08-27T19:08:21.945Z,25.70
2017-08-27T19:10:49.422Z,25.70
2017-08-27T19:13:17.101Z,25.60
2017-08-27T19:15:44.611Z,25.50
2017-08-27T19:18:12.196Z,25.50
2017-08-27T19:20:39.656Z,25.40
2017-08-27T19:23:07.142Z,25.40
2017-08-27T19:25:34.590Z,25.30
2017-08-27T19:28:02.075Z,25.20
2017-08-27T19:30:29.542Z,25.10
2017-08-27T19:32:57.092Z,25.10
2017-08-27T19:35:24.545Z,25.00
2017-08-27T19:37:52.007Z,24.90
2017-08-27T19:40:19.501Z,24.90
2017-08-27T19:42:46.971Z,24.80
2017-08-27T19:45:14.465Z,24.70
2017-08-27T19:47:41.950Z,24.50
2017-08-27T19:50:09.405Z,24.40
2017-08-27T19:52:36.896Z,24.30
2017-08-27T19:55:04.418Z,24.20
2017-08-27T19:57:31.945Z,24.10
2017-08-27T19:59:59.418Z,24.10
2017-08-27T20:02:26.938Z,24.00
2017-08-27T20:04:54.518Z,24.00
2017-08-27T20:07:22.026Z,23.90
2017-08-27T20:09:49.533Z,23.80
2017-08-27T20:12:17.113Z,23.80
2017-08-27T20:14:44.567Z,23.80
2017-08-27T20:17:12.039Z,23.80
2017-08-27T20:19:39.599Z,23.70
2017-08-27T20:22:07.066Z,23.60
2017-08-27T20:24:34.793Z,23.60
2017-08-27T20:27:02.277Z,23.50
2017-08-27T20:29:29.738Z,23.50
2017-08-27T20:31:57.193Z,23.40
2017-08-27T20:34:24.670Z,23.30
2017-08-27T20:36:52.141Z,23.20
2017-08-27T20:39:19.725Z,23.20
2017-08-27T20:41:47.191Z,23.10
2017-08-27T20:44:14.670Z,23.10
2017-08-27T20:46:42.122Z,23.00
2017-08-27T20:49:09.609Z,22.90
2017-08-27T20:51:37.066Z,22.90
2017-08-27T20:54:04.513Z,22.80
2017-08-27T20:56:31.987Z,22.80
2017-08-27T20:58:59.469Z,22.70
2017-08-27T21:01:26.918Z,22.70
2017-08-27T21:03:54.397Z,22.60
2017-08-27T21:06:21.910Z,22.50
2017-08-27T21:08:49.403Z,22.40
2017-08-27T21:11:16.849Z,22.40
2017-08-27T21:13:44.320Z,22.30
2017-08-27T21:16:11.812Z,22.30
2017-08-27T21:18:39.257Z,22.30
2017-08-27T21:21:06.701Z,22.20
2017-08-27T21:23:34.197Z,22.10
2017-08-27T21:26:01.654Z,22.10
2017-08-27T21:28:29.114Z,22.10
2017-08-27T21:30:56.594Z,22.00
2017-08-27T21:33:24.050Z,22.00
2017-08-27T21:35:51.501Z,21.90
2017-08-27T21:38:18.994Z,21.90
2017-08-27T21:40:46.445Z,21.80
2017-08-27T21:43:13.897Z,21.80
2017-08-27T21:45:41.382Z,21.80
2017-08-27T21:48:08.837Z,21.70
2017-08-27T21:50:36.286Z,21.70
2017-08-27T21:53:03.757Z,21.60
2017-08-27T21:55:31.209Z,21.60
2017-08-27T21:57:58.694Z,21.50
2017-08-27T22:00:34.917Z,21.50
2017-08-27T22:03:02.386Z,21.50
2017-08-27T22:05:29.874Z,21.50
2017-08-27T22:07:57.330Z,21.50
2017-08-27T22:10:24.774Z,21.50
2017-08-27T22:12:52.258Z,21.40
2017-08-27T22:15:19.715Z,21.40
2017-08-27T22:17:47.193Z,21.40
2017-08-27T22:20:14.673Z,21.50
2017-08-27T22:22:42.129Z,21.50
2017-08-27T22:25:09.590Z,21.40
2017-08-27T22:27:37.065Z,21.40
2017-08-27T22:30:04.519Z,21.20
2017-08-27T22:32:32.005Z,21.10
2017-08-27T22:34:59.464Z,21.00
2017-08-27T22:37:26.910Z,21.00
2017-08-27T22:39:54.406Z,21.00
2017-08-27T22:42:21.864Z,20.90
2017-08-27T22:44:49.318Z,20.90
2017-08-27T22:47:16.801Z,20.90
2017-08-27T22:49:44.254Z,20.90
2017-08-27T22:52:11.701Z,20.80
2017-08-27T22:54:39.185Z,20.70
2017-08-27T22:57:06.635Z,20.70
2017-08-27T22:59:34.081Z,20.60
2017-08-27T23:02:02.146Z,20.60
2017-08-27T23:04:29.593Z,20.60
2017-08-27T23:06:57.076Z,20.60
2017-08-27T23:09:24.594Z,20.60
2017-08-27T23:11:52.041Z,20.60
2017-08-27T23:14:19.546Z,20.60
2017-08-27T23:16:46.997Z,20.60
2017-08-27T23:19:14.457Z,20.60
2017-08-27T23:21:41.938Z,20.50
2017-08-27T23:24:09.407Z,20.50
2017-08-27T23:26:36.881Z,20.50
2017-08-27T23:29:04.339Z,20.50
2017-08-27T23:31:32.549Z,20.40
2017-08-27T23:34:00.037Z,20.40
2017-08-27T23:36:27.501Z,20.30
2017-08-27T23:38:54.956Z,20.20
2017-08-27T23:41:22.435Z,20.20
2017-08-27T23:43:49.897Z,20.20
2017-08-27T23:46:17.395Z,20.10
2017-08-27T23:48:44.851Z,20.10
2017-08-27T23:51:12.302Z,20.10
2017-08-27T23:53:39.790Z,20.10
2017-08-27T23:56:07.237Z,20.10
2017-08-27T23:58:34.689Z,20.00
